sensor_id;sensor_type;location;lat;lon;timestamp;P1;durP1;ratioP1;P2;durP2;ratioP2
2756;SDS011;1386;50.862;6.494;2023-07-08T00:02:23;7.07;;;5.43;;
2756;SDS011;1386;50.862;6.494;2023-07-08T00:05:11;5.20;;;4.43;;
2756;SDS011;1386;50.862;6.494;2023-07-08T00:07:42;8.80;;;4.73;;
2756;SDS011;1386;50.862;6.494;2023-07-08T00:10:13;7.23;;;4.30;;
2756;SDS011;1386;50.862;6.494;2023-07-08T00:12:44;8.27;;;4.30;;
2756;SDS011;1386;50.862;6.494;2023-07-08T00:15:15;6.70;;;5.00;;
2756;SDS011;1386;50.862;6.494;2023-07-08T00:17:42;5.53;;;4.20;;
2756;SDS011;1386;50.862;6.494;2023-07-08T00:20:21;6.63;;;4.40;;
2756;SDS011;1386;50.862;6.494;2023-07-08T00:22:55;9.90;;;5.00;;
2756;SDS011;1386;50.862;6.494;2023-07-08T00:25:24;6.87;;;4.63;;
2756;SDS011;1386;50.862;6.494;2023-07-08T00:27:51;9.53;;;5.40;;
2756;SDS011;1386;50.862;6.494;2023-07-08T00:30:19;7.07;;;4.80;;
2756;SDS011;1386;50.862;6.494;2023-07-08T00:32:56;7.67;;;4.60;;
2756;SDS011;1386;50.862;6.494;2023-07-08T00:35:28;10.73;;;4.93;;
2756;SDS011;1386;50.862;6.494;2023-07-08T00:37:57;10.30;;;5.30;;
2756;SDS011;1386;50.862;6.494;2023-07-08T00:40:27;6.70;;;4.77;;
2756;SDS011;1386;50.862;6.494;2023-07-08T00:42:55;7.90;;;5.23;;
2756;SDS011;1386;50.862;6.494;2023-07-08T00:45:32;6.27;;;4.13;;
2756;SDS011;1386;50.862;6.494;2023-07-08T00:48:16;7.17;;;5.10;;
2756;SDS011;1386;50.862;6.494;2023-07-08T00:50:51;6.97;;;4.80;;
2756;SDS011;1386;50.862;6.494;2023-07-08T00:53:26;6.67;;;4.53;;
2756;SDS011;1386;50.862;6.494;2023-07-08T00:55:55;7.97;;;4.73;;
2756;SDS011;1386;50.862;6.494;2023-07-08T00:58:24;6.80;;;4.53;;
2756;SDS011;1386;50.862;6.494;2023-07-08T01:00:54;8.70;;;5.70;;
2756;SDS011;1386;50.862;6.494;2023-07-08T01:03:23;9.00;;;6.13;;
2756;SDS011;1386;50.862;6.494;2023-07-08T01:05:51;7.00;;;5.30;;
2756;SDS011;1386;50.862;6.494;2023-07-08T01:08:21;7.30;;;5.07;;
2756;SDS011;1386;50.862;6.494;2023-07-08T01:10:59;7.60;;;5.53;;
2756;SDS011;1386;50.862;6.494;2023-07-08T01:13:29;8.03;;;5.60;;
2756;SDS011;1386;50.862;6.494;2023-07-08T01:15:59;6.60;;;5.47;;
2756;SDS011;1386;50.862;6.494;2023-07-08T01:18:26;9.60;;;6.30;;
2756;SDS011;1386;50.862;6.494;2023-07-08T01:20:54;7.53;;;5.10;;
2756;SDS011;1386;50.862;6.494;2023-07-08T01:23:24;10.17;;;6.17;;
2756;SDS011;1386;50.862;6.494;2023-07-08T01:25:51;14.07;;;5.90;;
2756;SDS011;1386;50.862;6.494;2023-07-08T01:28:18;10.50;;;5.43;;
2756;SDS011;1386;50.862;6.494;2023-07-08T01:30:51;11.27;;;5.93;;
2756;SDS011;1386;50.862;6.494;2023-07-08T01:33:19;9.80;;;6.07;;
2756;SDS011;1386;50.862;6.494;2023-07-08T01:35:49;11.40;;;7.83;;
2756;SDS011;1386;50.862;6.494;2023-07-08T01:38:17;12.60;;;6.03;;
2756;SDS011;1386;50.862;6.494;2023-07-08T01:40:54;11.50;;;6.30;;
2756;SDS011;1386;50.862;6.494;2023-07-08T01:43:22;10.37;;;6.30;;
2756;SDS011;1386;50.862;6.494;2023-07-08T01:45:54;11.00;;;5.90;;
2756;SDS011;1386;50.862;6.494;2023-07-08T01:48:24;9.80;;;5.50;;
2756;SDS011;1386;50.862;6.494;2023-07-08T01:51:01;11.90;;;6.30;;
2756;SDS011;1386;50.862;6.494;2023-07-08T01:53:31;8.40;;;5.83;;
2756;SDS011;1386;50.862;6.494;2023-07-08T01:56:01;6.40;;;5.07;;
2756;SDS011;1386;50.862;6.494;2023-07-08T01:58:28;8.27;;;5.70;;
2756;SDS011;1386;50.862;6.494;2023-07-08T02:00:55;14.63;;;6.30;;
2756;SDS011;1386;50.862;6.494;2023-07-08T02:03:22;12.67;;;6.50;;
2756;SDS011;1386;50.862;6.494;2023-07-08T02:05:49;12.03;;;6.37;;
2756;SDS011;1386;50.862;6.494;2023-07-08T02:08:21;10.37;;;5.83;;
2756;SDS011;1386;50.862;6.494;2023-07-08T02:10:49;9.63;;;6.17;;
2756;SDS011;1386;50.862;6.494;2023-07-08T02:13:18;13.30;;;6.00;;
2756;SDS011;1386;50.862;6.494;2023-07-08T02:15:46;12.20;;;5.90;;
2756;SDS011;1386;50.862;6.494;2023-07-08T02:18:13;12.17;;;6.33;;
2756;SDS011;1386;50.862;6.494;2023-07-08T02:20:40;10.47;;;5.97;;
2756;SDS011;1386;50.862;6.494;2023-07-08T02:23:11;17.27;;;7.57;;
2756;SDS011;1386;50.862;6.494;2023-07-08T02:25:38;9.83;;;6.37;;
2756;SDS011;1386;50.862;6.494;2023-07-08T02:28:04;8.63;;;5.90;;
2756;SDS011;1386;50.862;6.494;2023-07-08T02:30:33;16.27;;;5.70;;
2756;SDS011;1386;50.862;6.494;2023-07-08T02:33:00;9.83;;;5.80;;
2756;SDS011;1386;50.862;6.494;2023-07-08T02:35:29;8.20;;;5.80;;
2756;SDS011;1386;50.862;6.494;2023-07-08T02:37:57;8.43;;;5.63;;
2756;SDS011;1386;50.862;6.494;2023-07-08T02:40:24;11.67;;;6.60;;
2756;SDS011;1386;50.862;6.494;2023-07-08T02:42:52;15.93;;;6.03;;
2756;SDS011;1386;50.862;6.494;2023-07-08T02:45:21;10.37;;;6.00;;
2756;SDS011;1386;50.862;6.494;2023-07-08T02:47:49;14.03;;;6.00;;
2756;SDS011;1386;50.862;6.494;2023-07-08T02:50:16;9.77;;;5.77;;
2756;SDS011;1386;50.862;6.494;2023-07-08T02:52:45;10.53;;;7.10;;
2756;SDS011;1386;50.862;6.494;2023-07-08T02:55:18;12.33;;;6.47;;
2756;SDS011;1386;50.862;6.494;2023-07-08T02:57:48;9.40;;;6.57;;
2756;SDS011;1386;50.862;6.494;2023-07-08T03:00:15;12.67;;;6.20;;
2756;SDS011;1386;50.862;6.494;2023-07-08T03:02:42;11.80;;;6.43;;
2756;SDS011;1386;50.862;6.494;2023-07-08T03:05:15;21.07;;;7.40;;
2756;SDS011;1386;50.862;6.494;2023-07-08T03:07:42;12.93;;;6.53;;
2756;SDS011;1386;50.862;6.494;2023-07-08T03:10:09;19.00;;;7.60;;
2756;SDS011;1386;50.862;6.494;2023-07-08T03:12:36;14.90;;;7.23;;
2756;SDS011;1386;50.862;6.494;2023-07-08T03:15:08;19.47;;;8.10;;
2756;SDS011;1386;50.862;6.494;2023-07-08T03:17:38;14.73;;;7.50;;
2756;SDS011;1386;50.862;6.494;2023-07-08T03:20:06;13.37;;;6.10;;
2756;SDS011;1386;50.862;6.494;2023-07-08T03:22:36;10.60;;;6.67;;
2756;SDS011;1386;50.862;6.494;2023-07-08T03:25:03;11.40;;;6.17;;
2756;SDS011;1386;50.862;6.494;2023-07-08T03:27:30;10.47;;;6.40;;
2756;SDS011;1386;50.862;6.494;2023-07-08T03:29:57;10.83;;;6.70;;
2756;SDS011;1386;50.862;6.494;2023-07-08T03:32:30;10.30;;;6.10;;
2756;SDS011;1386;50.862;6.494;2023-07-08T03:34:58;11.73;;;6.80;;
2756;SDS011;1386;50.862;6.494;2023-07-08T03:37:26;10.00;;;6.63;;
2756;SDS011;1386;50.862;6.494;2023-07-08T03:39:54;9.80;;;7.00;;
2756;SDS011;1386;50.862;6.494;2023-07-08T03:42:21;8.30;;;6.87;;
2756;SDS011;1386;50.862;6.494;2023-07-08T03:44:48;11.00;;;6.80;;
2756;SDS011;1386;50.862;6.494;2023-07-08T03:47:15;10.47;;;6.93;;
2756;SDS011;1386;50.862;6.494;2023-07-08T03:49:44;9.90;;;6.10;;
2756;SDS011;1386;50.862;6.494;2023-07-08T03:52:12;8.13;;;6.40;;
2756;SDS011;1386;50.862;6.494;2023-07-08T03:54:42;11.20;;;7.10;;
2756;SDS011;1386;50.862;6.494;2023-07-08T03:57:16;10.27;;;5.60;;
2756;SDS011;1386;50.862;6.494;2023-07-08T03:59:46;11.70;;;7.30;;
2756;SDS011;1386;50.862;6.494;2023-07-08T04:02:13;12.23;;;7.73;;
2756;SDS011;1386;50.862;6.494;2023-07-08T04:04:40;11.47;;;6.70;;
2756;SDS011;1386;50.862;6.494;2023-07-08T04:07:06;11.17;;;7.47;;
2756;SDS011;1386;50.862;6.494;2023-07-08T04:09:33;8.33;;;6.73;;
2756;SDS011;1386;50.862;6.494;2023-07-08T04:12:00;10.50;;;6.70;;
2756;SDS011;1386;50.862;6.494;2023-07-08T04:14:28;9.27;;;6.53;;
2756;SDS011;1386;50.862;6.494;2023-07-08T04:16:55;12.30;;;6.77;;
2756;SDS011;1386;50.862;6.494;2023-07-08T04:19:24;9.23;;;6.60;;
2756;SDS011;1386;50.862;6.494;2023-07-08T04:21:55;9.60;;;7.00;;
2756;SDS011;1386;50.862;6.494;2023-07-08T04:24:22;9.27;;;7.10;;
2756;SDS011;1386;50.862;6.494;2023-07-08T04:26:49;11.40;;;7.40;;
2756;SDS011;1386;50.862;6.494;2023-07-08T04:29:22;12.47;;;7.60;;
2756;SDS011;1386;50.862;6.494;2023-07-08T04:31:52;12.87;;;7.30;;
2756;SDS011;1386;50.862;6.494;2023-07-08T04:34:19;10.60;;;7.00;;
2756;SDS011;1386;50.862;6.494;2023-07-08T04:36:48;11.97;;;7.60;;
2756;SDS011;1386;50.862;6.494;2023-07-08T04:39:20;12.40;;;7.53;;
2756;SDS011;1386;50.862;6.494;2023-07-08T04:41:46;10.87;;;7.33;;
2756;SDS011;1386;50.862;6.494;2023-07-08T04:44:13;9.77;;;6.70;;
2756;SDS011;1386;50.862;6.494;2023-07-08T04:46:45;11.67;;;6.53;;
2756;SDS011;1386;50.862;6.494;2023-07-08T04:49:22;12.03;;;7.67;;
2756;SDS011;1386;50.862;6.494;2023-07-08T04:51:58;10.97;;;7.50;;
2756;SDS011;1386;50.862;6.494;2023-07-08T04:54:26;11.83;;;7.70;;
2756;SDS011;1386;50.862;6.494;2023-07-08T04:57:02;11.00;;;7.43;;
2756;SDS011;1386;50.862;6.494;2023-07-08T04:59:29;14.87;;;7.37;;
2756;SDS011;1386;50.862;6.494;2023-07-08T05:02:05;8.63;;;7.13;;
2756;SDS011;1386;50.862;6.494;2023-07-08T05:04:34;9.27;;;6.30;;
2756;SDS011;1386;50.862;6.494;2023-07-08T05:07:09;12.97;;;7.23;;
2756;SDS011;1386;50.862;6.494;2023-07-08T05:09:36;11.00;;;7.30;;
2756;SDS011;1386;50.862;6.494;2023-07-08T05:12:05;10.20;;;7.80;;
2756;SDS011;1386;50.862;6.494;2023-07-08T05:14:32;10.73;;;7.57;;
2756;SDS011;1386;50.862;6.494;2023-07-08T05:16:59;10.80;;;7.37;;
2756;SDS011;1386;50.862;6.494;2023-07-08T05:19:39;12.60;;;7.57;;
2756;SDS011;1386;50.862;6.494;2023-07-08T05:22:06;10.17;;;7.00;;
2756;SDS011;1386;50.862;6.494;2023-07-08T05:24:33;9.53;;;6.60;;
2756;SDS011;1386;50.862;6.494;2023-07-08T05:27:00;12.33;;;7.57;;
2756;SDS011;1386;50.862;6.494;2023-07-08T05:29:27;11.90;;;7.77;;
2756;SDS011;1386;50.862;6.494;2023-07-08T05:31:53;10.13;;;6.83;;
2756;SDS011;1386;50.862;6.494;2023-07-08T05:34:20;10.97;;;6.87;;
2756;SDS011;1386;50.862;6.494;2023-07-08T05:36:48;11.23;;;7.13;;
2756;SDS011;1386;50.862;6.494;2023-07-08T05:39:15;10.90;;;7.17;;
2756;SDS011;1386;50.862;6.494;2023-07-08T05:41:42;8.20;;;6.90;;
2756;SDS011;1386;50.862;6.494;2023-07-08T05:44:11;10.43;;;7.30;;
2756;SDS011;1386;50.862;6.494;2023-07-08T05:46:41;11.37;;;7.23;;
2756;SDS011;1386;50.862;6.494;2023-07-08T05:49:08;10.83;;;7.10;;
2756;SDS011;1386;50.862;6.494;2023-07-08T05:51:45;10.23;;;7.87;;
2756;SDS011;1386;50.862;6.494;2023-07-08T05:54:14;16.23;;;8.00;;
2756;SDS011;1386;50.862;6.494;2023-07-08T05:56:41;13.50;;;7.30;;
2756;SDS011;1386;50.862;6.494;2023-07-08T05:59:12;14.17;;;8.10;;
2756;SDS011;1386;50.862;6.494;2023-07-08T06:01:39;9.83;;;7.67;;
2756;SDS011;1386;50.862;6.494;2023-07-08T06:04:05;11.23;;;7.17;;
2756;SDS011;1386;50.862;6.494;2023-07-08T06:06:35;12.23;;;7.67;;
2756;SDS011;1386;50.862;6.494;2023-07-08T06:09:17;12.80;;;7.37;;
2756;SDS011;1386;50.862;6.494;2023-07-08T06:11:44;7.57;;;6.20;;
2756;SDS011;1386;50.862;6.494;2023-07-08T06:14:11;9.57;;;6.60;;
2756;SDS011;1386;50.862;6.494;2023-07-08T06:16:38;14.07;;;7.20;;
2756;SDS011;1386;50.862;6.494;2023-07-08T06:19:10;12.87;;;7.60;;
2756;SDS011;1386;50.862;6.494;2023-07-08T06:21:40;15.07;;;7.23;;
2756;SDS011;1386;50.862;6.494;2023-07-08T06:24:07;15.20;;;8.00;;
2756;SDS011;1386;50.862;6.494;2023-07-08T06:26:38;15.67;;;7.77;;
2756;SDS011;1386;50.862;6.494;2023-07-08T06:29:05;13.20;;;7.30;;
2756;SDS011;1386;50.862;6.494;2023-07-08T06:31:32;15.73;;;7.53;;
2756;SDS011;1386;50.862;6.494;2023-07-08T06:34:01;18.63;;;8.90;;
2756;SDS011;1386;50.862;6.494;2023-07-08T06:36:29;18.77;;;8.50;;
2756;SDS011;1386;50.862;6.494;2023-07-08T06:38:56;19.73;;;8.30;;
2756;SDS011;1386;50.862;6.494;2023-07-08T06:41:22;14.00;;;7.87;;
2756;SDS011;1386;50.862;6.494;2023-07-08T06:43:52;21.03;;;8.77;;
2756;SDS011;1386;50.862;6.494;2023-07-08T06:46:19;24.40;;;11.50;;
2756;SDS011;1386;50.862;6.494;2023-07-08T06:48:46;14.10;;;7.80;;
2756;SDS011;1386;50.862;6.494;2023-07-08T06:51:18;13.67;;;7.97;;
2756;SDS011;1386;50.862;6.494;2023-07-08T06:53:45;11.93;;;7.80;;
2756;SDS011;1386;50.862;6.494;2023-07-08T06:56:12;10.50;;;8.30;;
2756;SDS011;1386;50.862;6.494;2023-07-08T06:58:39;9.90;;;6.50;;
2756;SDS011;1386;50.862;6.494;2023-07-08T07:01:07;14.13;;;8.03;;
2756;SDS011;1386;50.862;6.494;2023-07-08T07:03:34;11.07;;;7.63;;
2756;SDS011;1386;50.862;6.494;2023-07-08T07:06:01;18.77;;;10.20;;
2756;SDS011;1386;50.862;6.494;2023-07-08T07:08:28;15.07;;;10.27;;
2756;SDS011;1386;50.862;6.494;2023-07-08T07:10:55;12.20;;;7.57;;
2756;SDS011;1386;50.862;6.494;2023-07-08T07:13:21;12.23;;;8.33;;
2756;SDS011;1386;50.862;6.494;2023-07-08T07:15:48;13.40;;;7.20;;
2756;SDS011;1386;50.862;6.494;2023-07-08T07:18:19;11.60;;;7.40;;
2756;SDS011;1386;50.862;6.494;2023-07-08T07:20:52;9.60;;;6.37;;
2756;SDS011;1386;50.862;6.494;2023-07-08T07:23:20;7.93;;;6.07;;
2756;SDS011;1386;50.862;6.494;2023-07-08T07:25:47;12.90;;;7.53;;
2756;SDS011;1386;50.862;6.494;2023-07-08T07:28:14;21.03;;;9.60;;
2756;SDS011;1386;50.862;6.494;2023-07-08T07:30:47;14.07;;;8.53;;
2756;SDS011;1386;50.862;6.494;2023-07-08T07:33:23;15.07;;;8.73;;
2756;SDS011;1386;50.862;6.494;2023-07-08T07:35:52;9.87;;;7.37;;
2756;SDS011;1386;50.862;6.494;2023-07-08T07:38:25;14.90;;;9.10;;
2756;SDS011;1386;50.862;6.494;2023-07-08T07:40:54;11.67;;;7.80;;
2756;SDS011;1386;50.862;6.494;2023-07-08T07:43:25;9.70;;;7.20;;
2756;SDS011;1386;50.862;6.494;2023-07-08T07:45:52;15.07;;;7.70;;
2756;SDS011;1386;50.862;6.494;2023-07-08T07:48:19;10.03;;;7.47;;
2756;SDS011;1386;50.862;6.494;2023-07-08T07:50:48;15.53;;;8.77;;
2756;SDS011;1386;50.862;6.494;2023-07-08T07:53:17;18.50;;;10.17;;
2756;SDS011;1386;50.862;6.494;2023-07-08T07:55:44;14.10;;;8.07;;
2756;SDS011;1386;50.862;6.494;2023-07-08T07:58:11;11.83;;;8.13;;
2756;SDS011;1386;50.862;6.494;2023-07-08T08:00:38;9.67;;;7.53;;
2756;SDS011;1386;50.862;6.494;2023-07-08T08:03:06;11.47;;;7.30;;
2756;SDS011;1386;50.862;6.494;2023-07-08T08:05:35;11.43;;;7.70;;
2756;SDS011;1386;50.862;6.494;2023-07-08T08:08:09;15.60;;;9.20;;
2756;SDS011;1386;50.862;6.494;2023-07-08T08:10:58;12.73;;;8.33;;
2756;SDS011;1386;50.862;6.494;2023-07-08T08:13:24;9.90;;;7.47;;
2756;SDS011;1386;50.862;6.494;2023-07-08T08:18:51;11.00;;;6.87;;
2756;SDS011;1386;50.862;6.494;2023-07-08T08:21:20;14.60;;;8.43;;
2756;SDS011;1386;50.862;6.494;2023-07-08T08:23:49;12.73;;;8.37;;
2756;SDS011;1386;50.862;6.494;2023-07-08T08:26:16;28.03;;;15.30;;
2756;SDS011;1386;50.862;6.494;2023-07-08T08:28:43;15.40;;;9.53;;
2756;SDS011;1386;50.862;6.494;2023-07-08T08:31:10;9.37;;;6.90;;
2756;SDS011;1386;50.862;6.494;2023-07-08T08:34:01;10.43;;;7.87;;
2756;SDS011;1386;50.862;6.494;2023-07-08T08:36:31;14.40;;;6.60;;
2756;SDS011;1386;50.862;6.494;2023-07-08T08:38:59;8.87;;;6.20;;
2756;SDS011;1386;50.862;6.494;2023-07-08T08:41:31;10.33;;;6.43;;
2756;SDS011;1386;50.862;6.494;2023-07-08T08:44:00;11.30;;;6.73;;
2756;SDS011;1386;50.862;6.494;2023-07-08T08:46:34;13.70;;;6.40;;
2756;SDS011;1386;50.862;6.494;2023-07-08T08:49:13;10.83;;;6.90;;
2756;SDS011;1386;50.862;6.494;2023-07-08T08:51:44;10.27;;;6.63;;
2756;SDS011;1386;50.862;6.494;2023-07-08T08:54:13;10.07;;;7.03;;
2756;SDS011;1386;50.862;6.494;2023-07-08T08:56:43;7.60;;;6.43;;
2756;SDS011;1386;50.862;6.494;2023-07-08T08:59:16;9.40;;;6.00;;
2756;SDS011;1386;50.862;6.494;2023-07-08T09:01:50;8.00;;;6.13;;
2756;SDS011;1386;50.862;6.494;2023-07-08T09:04:23;8.33;;;5.70;;
2756;SDS011;1386;50.862;6.494;2023-07-08T09:07:04;10.57;;;5.63;;
2756;SDS011;1386;50.862;6.494;2023-07-08T09:09:45;8.10;;;5.07;;
2756;SDS011;1386;50.862;6.494;2023-07-08T09:12:20;8.97;;;6.80;;
2756;SDS011;1386;50.862;6.494;2023-07-08T09:14:52;7.03;;;5.73;;
2756;SDS011;1386;50.862;6.494;2023-07-08T09:17:22;8.20;;;5.60;;
2756;SDS011;1386;50.862;6.494;2023-07-08T09:20:05;7.50;;;6.40;;
2756;SDS011;1386;50.862;6.494;2023-07-08T09:22:40;10.47;;;6.30;;
2756;SDS011;1386;50.862;6.494;2023-07-08T09:25:20;7.73;;;5.93;;
2756;SDS011;1386;50.862;6.494;2023-07-08T09:27:53;7.60;;;6.20;;
2756;SDS011;1386;50.862;6.494;2023-07-08T09:30:20;6.87;;;5.20;;
2756;SDS011;1386;50.862;6.494;2023-07-08T09:32:48;6.93;;;5.43;;
2756;SDS011;1386;50.862;6.494;2023-07-08T09:35:17;7.33;;;4.70;;
2756;SDS011;1386;50.862;6.494;2023-07-08T09:37:48;6.10;;;5.20;;
2756;SDS011;1386;50.862;6.494;2023-07-08T09:40:17;7.73;;;5.30;;
2756;SDS011;1386;50.862;6.494;2023-07-08T09:42:46;8.77;;;5.97;;
2756;SDS011;1386;50.862;6.494;2023-07-08T09:45:18;7.00;;;5.27;;
2756;SDS011;1386;50.862;6.494;2023-07-08T09:47:51;8.80;;;6.37;;
2756;SDS011;1386;50.862;6.494;2023-07-08T09:50:19;8.50;;;5.73;;
2756;SDS011;1386;50.862;6.494;2023-07-08T09:52:49;8.50;;;5.70;;
2756;SDS011;1386;50.862;6.494;2023-07-08T09:55:20;8.17;;;5.73;;
2756;SDS011;1386;50.862;6.494;2023-07-08T09:57:47;6.70;;;5.43;;
2756;SDS011;1386;50.862;6.494;2023-07-08T10:00:24;10.67;;;4.93;;
2756;SDS011;1386;50.862;6.494;2023-07-08T10:02:55;9.30;;;4.97;;
2756;SDS011;1386;50.862;6.494;2023-07-08T10:05:23;5.70;;;4.70;;
2756;SDS011;1386;50.862;6.494;2023-07-08T10:07:54;7.57;;;5.07;;
2756;SDS011;1386;50.862;6.494;2023-07-08T10:10:24;6.33;;;5.17;;
2756;SDS011;1386;50.862;6.494;2023-07-08T10:13:00;7.33;;;5.03;;
2756;SDS011;1386;50.862;6.494;2023-07-08T10:15:31;6.73;;;4.80;;
2756;SDS011;1386;50.862;6.494;2023-07-08T10:18:07;5.80;;;4.53;;
2756;SDS011;1386;50.862;6.494;2023-07-08T10:20:41;6.53;;;4.90;;
2756;SDS011;1386;50.862;6.494;2023-07-08T10:23:23;11.33;;;4.93;;
2756;SDS011;1386;50.862;6.494;2023-07-08T10:26:06;8.93;;;4.80;;
2756;SDS011;1386;50.862;6.494;2023-07-08T10:28:43;5.67;;;4.77;;
2756;SDS011;1386;50.862;6.494;2023-07-08T10:31:16;5.77;;;3.97;;
2756;SDS011;1386;50.862;6.494;2023-07-08T10:34:02;11.07;;;4.53;;
2756;SDS011;1386;50.862;6.494;2023-07-08T10:36:48;10.33;;;4.63;;
2756;SDS011;1386;50.862;6.494;2023-07-08T10:39:25;8.83;;;4.30;;
2756;SDS011;1386;50.862;6.494;2023-07-08T10:42:15;5.50;;;3.90;;
2756;SDS011;1386;50.862;6.494;2023-07-08T10:44:53;9.40;;;4.70;;
2756;SDS011;1386;50.862;6.494;2023-07-08T10:47:37;7.30;;;4.47;;
2756;SDS011;1386;50.862;6.494;2023-07-08T10:50:26;6.57;;;4.20;;
2756;SDS011;1386;50.862;6.494;2023-07-08T10:53:11;5.73;;;4.07;;
2756;SDS011;1386;50.862;6.494;2023-07-08T10:55:53;7.60;;;4.13;;
2756;SDS011;1386;50.862;6.494;2023-07-08T10:58:32;8.00;;;4.40;;
2756;SDS011;1386;50.862;6.494;2023-07-08T11:01:11;4.97;;;3.93;;
2756;SDS011;1386;50.862;6.494;2023-07-08T11:03:55;5.20;;;4.17;;
2756;SDS011;1386;50.862;6.494;2023-07-08T11:06:40;5.97;;;4.57;;
2756;SDS011;1386;50.862;6.494;2023-07-08T11:09:13;4.93;;;4.20;;
2756;SDS011;1386;50.862;6.494;2023-07-08T11:11:53;6.50;;;4.43;;
2756;SDS011;1386;50.862;6.494;2023-07-08T11:14:27;6.40;;;4.80;;
2756;SDS011;1386;50.862;6.494;2023-07-08T11:17:11;6.10;;;4.17;;
2756;SDS011;1386;50.862;6.494;2023-07-08T11:19:47;5.97;;;4.50;;
2756;SDS011;1386;50.862;6.494;2023-07-08T11:22:19;5.27;;;4.43;;
2756;SDS011;1386;50.862;6.494;2023-07-08T11:24:48;5.80;;;4.33;;
2756;SDS011;1386;50.862;6.494;2023-07-08T11:27:24;5.83;;;4.00;;
2756;SDS011;1386;50.862;6.494;2023-07-08T11:30:02;6.13;;;4.60;;
2756;SDS011;1386;50.862;6.494;2023-07-08T11:32:39;7.40;;;4.70;;
2756;SDS011;1386;50.862;6.494;2023-07-08T11:35:13;5.63;;;4.70;;
2756;SDS011;1386;50.862;6.494;2023-07-08T11:44:26;8.60;;;4.43;;
2756;SDS011;1386;50.862;6.494;2023-07-08T11:46:58;7.50;;;4.80;;
2756;SDS011;1386;50.862;6.494;2023-07-08T11:49:42;8.53;;;5.60;;
2756;SDS011;1386;50.862;6.494;2023-07-08T11:52:19;5.10;;;3.83;;
2756;SDS011;1386;50.862;6.494;2023-07-08T11:54:55;6.70;;;4.50;;
2756;SDS011;1386;50.862;6.494;2023-07-08T11:57:27;5.60;;;4.23;;
2756;SDS011;1386;50.862;6.494;2023-07-08T12:00:06;7.77;;;4.10;;
2756;SDS011;1386;50.862;6.494;2023-07-08T12:03:04;8.03;;;5.10;;
2756;SDS011;1386;50.862;6.494;2023-07-08T12:05:48;5.50;;;3.80;;
2756;SDS011;1386;50.862;6.494;2023-07-08T12:08:18;7.27;;;5.00;;
2756;SDS011;1386;50.862;6.494;2023-07-08T12:10:58;4.73;;;3.60;;
2756;SDS011;1386;50.862;6.494;2023-07-08T12:13:26;5.87;;;3.83;;
2756;SDS011;1386;50.862;6.494;2023-07-08T12:15:54;5.83;;;4.33;;
2756;SDS011;1386;50.862;6.494;2023-07-08T12:18:25;5.63;;;4.30;;
2756;SDS011;1386;50.862;6.494;2023-07-08T12:20:58;4.83;;;4.17;;
2756;SDS011;1386;50.862;6.494;2023-07-08T12:23:31;6.30;;;4.23;;
2756;SDS011;1386;50.862;6.494;2023-07-08T12:25:58;5.90;;;4.30;;
2756;SDS011;1386;50.862;6.494;2023-07-08T12:29:13;5.40;;;3.93;;
2756;SDS011;1386;50.862;6.494;2023-07-08T12:32:05;6.70;;;4.83;;
2756;SDS011;1386;50.862;6.494;2023-07-08T12:34:38;4.87;;;4.07;;
2756;SDS011;1386;50.862;6.494;2023-07-08T12:37:10;6.73;;;4.33;;
2756;SDS011;1386;50.862;6.494;2023-07-08T12:39:53;5.87;;;4.40;;
2756;SDS011;1386;50.862;6.494;2023-07-08T12:42:31;11.07;;;4.37;;
2756;SDS011;1386;50.862;6.494;2023-07-08T12:45:02;7.33;;;4.17;;
2756;SDS011;1386;50.862;6.494;2023-07-08T12:50:01;4.63;;;4.13;;
2756;SDS011;1386;50.862;6.494;2023-07-08T12:51:27;6.60;;;4.30;;
2756;SDS011;1386;50.862;6.494;2023-07-08T12:53:56;4.57;;;3.90;;
2756;SDS011;1386;50.862;6.494;2023-07-08T12:56:37;6.03;;;4.53;;
2756;SDS011;1386;50.862;6.494;2023-07-08T13:02:10;6.27;;;4.40;;
2756;SDS011;1386;50.862;6.494;2023-07-08T13:04:49;7.03;;;5.60;;
2756;SDS011;1386;50.862;6.494;2023-07-08T13:07:25;6.20;;;4.60;;
2756;SDS011;1386;50.862;6.494;2023-07-08T13:10:16;6.07;;;4.73;;
2756;SDS011;1386;50.862;6.494;2023-07-08T15:34:17;8.23;;;4.97;;
2756;SDS011;1386;50.862;6.494;2023-07-08T15:36:46;11.30;;;5.00;;
2756;SDS011;1386;50.862;6.494;2023-07-08T15:39:13;6.53;;;4.57;;
2756;SDS011;1386;50.862;6.494;2023-07-08T15:41:40;6.50;;;4.40;;
2756;SDS011;1386;50.862;6.494;2023-07-08T15:44:08;6.07;;;4.40;;
2756;SDS011;1386;50.862;6.494;2023-07-08T15:46:39;9.33;;;5.27;;
2756;SDS011;1386;50.862;6.494;2023-07-08T15:49:12;7.03;;;5.13;;
2756;SDS011;1386;50.862;6.494;2023-07-08T15:51:47;7.40;;;4.70;;
2756;SDS011;1386;50.862;6.494;2023-07-08T15:54:13;8.67;;;4.70;;
2756;SDS011;1386;50.862;6.494;2023-07-08T15:56:40;5.50;;;4.80;;
2756;SDS011;1386;50.862;6.494;2023-07-08T15:59:09;5.77;;;4.70;;
2756;SDS011;1386;50.862;6.494;2023-07-08T16:01:39;6.20;;;4.60;;
2756;SDS011;1386;50.862;6.494;2023-07-08T16:04:10;7.80;;;4.90;;
2756;SDS011;1386;50.862;6.494;2023-07-08T16:06:48;5.47;;;4.43;;
2756;SDS011;1386;50.862;6.494;2023-07-08T16:09:15;8.73;;;4.80;;
2756;SDS011;1386;50.862;6.494;2023-07-08T16:11:51;5.60;;;4.73;;
2756;SDS011;1386;50.862;6.494;2023-07-08T16:14:18;9.50;;;4.83;;
2756;SDS011;1386;50.862;6.494;2023-07-08T16:16:47;5.70;;;4.80;;
2756;SDS011;1386;50.862;6.494;2023-07-08T16:19:14;5.77;;;4.00;;
2756;SDS011;1386;50.862;6.494;2023-07-08T16:21:42;6.37;;;4.70;;
2756;SDS011;1386;50.862;6.494;2023-07-08T16:24:10;7.40;;;4.90;;
